Time;durP1;ratioP1;P1;durP2;ratioP2;P2;SDS_P1;SDS_P2;PMS_P1;PMS_P2;Temp;Humidity;BMP_temperature;BMP_pressure;BME280_temperature;BME280_humidity;BME280_pressure;Samples;Min_cycle;Max_cycle;Signal;HPM_P1;HPM_P2
2021/10/01 00:00:42;;;;;;;8.63;1.65;;;13.80;71.20;;;;;;5079008;28;20498;-72
2021/10/01 00:03:07;;;;;;;4.10;1.30;;;13.70;70.90;;;;;;5063158;28;20036;-73
2021/10/01 00:05:33;;;;;;;9.48;1.92;;;13.70;71.00;;;;;;5055657;28;20047;-71
2021/10/01 00:07:59;;;;;;;4.40;1.10;;;13.70;70.90;;;;;;5051162;28;20032;-71
2021/10/01 00:10:24;;;;;;;8.45;2.20;;;13.70;70.80;;;;;;5067964;28;20154;-70
2021/10/01 00:12:50;;;;;;;3.58;1.17;;;13.70;70.80;;;;;;5063736;28;20475;-73
2021/10/01 00:15:16;;;;;;;2.83;1.10;;;13.60;71.10;;;;;;5066476;28;20028;-73
2021/10/01 00:17:42;;;;;;;5.05;1.50;;;13.60;71.20;;;;;;5069242;28;20040;-73
2021/10/01 00:20:08;;;;;;;5.07;1.48;;;13.60;71.40;;;;;;5056684;28;20519;-73
2021/10/01 00:22:34;;;;;;;3.65;1.27;;;13.60;72.10;;;;;;5084437;28;20024;-71
2021/10/01 00:25:00;;;;;;;4.88;1.90;;;13.60;71.90;;;;;;5052305;28;20055;-73
2021/10/01 00:27:26;;;;;;;6.13;1.45;;;13.60;72.00;;;;;;5060084;28;20378;-71
2021/10/01 00:29:51;;;;;;;4.75;1.70;;;13.60;72.20;;;;;;5062917;28;20036;-70
2021/10/01 00:32:17;;;;;;;3.35;1.30;;;13.60;72.00;;;;;;5064886;28;20052;-71
2021/10/01 00:34:43;;;;;;;5.40;1.60;;;13.60;72.00;;;;;;5089297;28;20043;-71
2021/10/01 00:37:08;;;;;;;6.15;1.52;;;13.60;72.10;;;;;;5088385;28;20127;-73
2021/10/01 00:39:34;;;;;;;5.13;1.20;;;13.60;71.80;;;;;;5071049;28;20034;-73
2021/10/01 00:42:00;;;;;;;5.30;1.55;;;13.60;71.80;;;;;;5083461;28;20020;-73
2021/10/01 00:44:27;;;;;;;4.65;1.50;;;13.60;72.00;;;;;;5061966;28;20031;-73
2021/10/01 00:46:53;;;;;;;3.90;1.52;;;13.60;72.10;;;;;;5079990;28;20035;-73
2021/10/01 00:49:19;;;;;;;6.78;1.45;;;13.60;72.10;;;;;;5082322;28;20016;-73
2021/10/01 00:51:45;;;;;;;6.18;1.60;;;13.60;72.30;;;;;;5065938;28;20491;-73
2021/10/01 00:54:11;;;;;;;5.28;1.40;;;13.60;72.10;;;;;;5064332;28;20471;-71
2021/10/01 00:56:37;;;;;;;5.07;1.30;;;13.60;72.10;;;;;;5082089;28;20114;-71
2021/10/01 00:59:02;;;;;;;4.80;1.70;;;13.60;72.10;;;;;;5077092;28;20435;-71
2021/10/01 01:01:28;;;;;;;4.57;2.00;;;13.60;72.20;;;;;;5069456;28;20398;-71
2021/10/01 01:04:04;;;;;;;2.90;1.30;;;13.60;71.80;;;;;;5049110;28;20020;-73
2021/10/01 01:07:00;;;;;;;4.80;1.40;;;13.60;71.90;;;;;;5058817;28;20036;-71
2021/10/01 01:09:31;;;;;;;6.20;1.45;;;13.60;71.90;;;;;;5087275;28;20068;-71
2021/10/01 01:12:09;;;;;;;3.03;1.30;;;13.60;71.70;;;;;;5083296;28;20056;-71
2021/10/01 01:14:57;;;;;;;3.67;1.20;;;13.60;71.70;;;;;;5059040;28;20056;-71
2021/10/01 01:17:32;;;;;;;5.35;1.13;;;13.60;71.80;;;;;;5083953;28;20111;-72
2021/10/01 01:20:17;;;;;;;4.15;1.30;;;13.60;71.90;;;;;;5057878;28;20028;-71
2021/10/01 01:23:13;;;;;;;4.38;1.40;;;13.60;72.10;;;;;;5062098;28;20498;-70
2021/10/01 01:26:14;;;;;;;4.07;1.20;;;13.60;71.90;;;;;;5076095;28;20028;-71
2021/10/01 01:28:40;;;;;;;6.55;1.40;;;13.60;71.90;;;;;;5060287;28;20135;-73
2021/10/01 01:31:19;;;;;;;5.43;1.38;;;13.60;71.90;;;;;;5085911;28;20119;-72
2021/10/01 01:33:46;;;;;;;5.10;1.27;;;13.50;71.40;;;;;;5085619;28;20032;-73
2021/10/01 01:36:14;;;;;;;3.72;1.30;;;13.50;71.60;;;;;;5073747;28;20039;-73
2021/10/01 01:38:44;;;;;;;3.63;1.40;;;13.50;71.50;;;;;;5073142;28;20490;-73
2021/10/01 01:41:11;;;;;;;4.32;1.35;;;13.50;71.80;;;;;;5073758;28;20028;-73
2021/10/01 01:43:39;;;;;;;5.10;1.20;;;13.50;71.50;;;;;;5091343;28;20082;-71
2021/10/01 01:46:06;;;;;;;3.58;1.17;;;13.50;71.90;;;;;;5073931;28;20020;-73
2021/10/01 01:48:32;;;;;;;3.45;1.05;;;13.50;71.80;;;;;;5071379;28;20131;-72
2021/10/01 01:51:00;;;;;;;4.93;1.10;;;13.50;71.80;;;;;;5082211;28;20545;-72
2021/10/01 01:53:26;;;;;;;3.70;1.13;;;13.50;72.00;;;;;;5082827;28;20038;-70
2021/10/01 01:55:55;;;;;;;2.75;1.00;;;13.50;71.80;;;;;;5073491;28;20085;-73
2021/10/01 01:58:21;;;;;;;3.08;1.10;;;13.50;72.00;;;;;;5072272;28;20039;-73
2021/10/01 02:00:47;;;;;;;3.78;1.38;;;13.50;72.10;;;;;;5089978;28;20028;-73
2021/10/01 02:03:16;;;;;;;3.88;1.15;;;13.40;71.70;;;;;;5088389;28;20475;-73
2021/10/01 02:05:45;;;;;;;4.47;1.00;;;13.40;71.80;;;;;;5081674;28;20028;-73
2021/10/01 02:08:12;;;;;;;3.97;1.10;;;13.40;71.90;;;;;;5087476;28;20032;-73
2021/10/01 02:10:38;;;;;;;5.20;1.48;;;13.50;72.10;;;;;;5081268;28;20024;-73
2021/10/01 02:13:09;;;;;;;3.85;1.50;;;13.50;71.80;;;;;;5054599;28;20032;-73
2021/10/01 02:15:37;;;;;;;3.60;1.10;;;13.50;72.00;;;;;;5089898;28;20019;-73
2021/10/01 02:18:05;;;;;;;3.97;1.20;;;13.40;71.80;;;;;;5093923;28;20056;-73
2021/10/01 02:20:34;;;;;;;3.65;1.02;;;13.40;72.00;;;;;;5089369;28;20035;-73
2021/10/01 02:23:01;;;;;;;4.57;1.38;;;13.50;71.90;;;;;;5091247;28;20016;-73
2021/10/01 02:28:19;;;;;;;3.38;1.10;;;13.40;71.90;;;;;;5083958;28;20035;-73
2021/10/01 02:30:47;;;;;;;4.53;1.25;;;13.50;72.00;;;;;;5078578;28;20637;-73
2021/10/01 02:33:19;;;;;;;5.55;1.67;;;13.50;72.00;;;;;;5090956;28;20023;-73
2021/10/01 02:35:45;;;;;;;6.60;1.30;;;13.50;72.10;;;;;;5083615;28;20089;-71
2021/10/01 02:38:11;;;;;;;6.10;1.48;;;13.50;72.00;;;;;;5085318;28;20037;-71
2021/10/01 02:40:37;;;;;;;5.20;1.20;;;13.50;71.70;;;;;;5071143;28;20031;-72
2021/10/01 02:43:03;;;;;;;4.72;1.45;;;13.50;71.90;;;;;;5084479;28;20028;-71
2021/10/01 02:45:29;;;;;;;2.47;0.95;;;13.50;72.00;;;;;;5062776;28;20496;-71
2021/10/01 02:47:54;;;;;;;2.78;1.10;;;13.50;71.80;;;;;;5068235;28;20350;-71
2021/10/01 02:50:22;;;;;;;4.43;1.23;;;13.50;71.70;;;;;;5087983;28;20111;-71
2021/10/01 02:53:00;;;;;;;4.07;1.15;;;13.50;71.70;;;;;;5089301;28;20467;-71
2021/10/01 02:55:51;;;;;;;5.30;1.23;;;13.50;71.80;;;;;;5078977;28;20414;-71
2021/10/01 02:58:29;;;;;;;5.32;1.30;;;13.50;72.10;;;;;;5083570;28;20024;-71
2021/10/01 03:00:57;;;;;;;3.58;1.10;;;13.50;71.80;;;;;;5061708;28;20119;-71
2021/10/01 03:03:26;;;;;;;4.85;1.13;;;13.50;72.00;;;;;;5089716;28;20054;-71
2021/10/01 03:05:57;;;;;;;4.47;1.25;;;13.50;72.40;;;;;;5068652;28;20514;-71
2021/10/01 03:08:25;;;;;;;4.30;1.45;;;13.50;72.10;;;;;;5083500;28;20024;-71
2021/10/01 03:10:51;;;;;;;4.63;1.25;;;13.50;72.40;;;;;;5079137;28;20043;-71
2021/10/01 03:13:21;;;;;;;4.65;1.35;;;13.50;72.40;;;;;;5069997;28;20090;-71
2021/10/01 03:15:49;;;;;;;3.95;1.08;;;13.50;72.40;;;;;;5058539;28;20043;-71
2021/10/01 03:18:15;;;;;;;3.83;1.05;;;13.50;72.40;;;;;;5072321;28;20031;-70
2021/10/01 03:20:42;;;;;;;5.10;1.23;;;13.50;72.20;;;;;;5082258;28;20039;-71
2021/10/01 03:23:10;;;;;;;5.38;1.38;;;13.50;72.10;;;;;;5089037;28;20123;-73
2021/10/01 03:25:38;;;;;;;5.93;1.20;;;13.50;72.10;;;;;;5087270;28;20028;-73
2021/10/01 03:28:05;;;;;;;6.22;1.25;;;13.50;72.10;;;;;;5087146;28;20024;-73
2021/10/01 03:30:31;;;;;;;4.25;1.20;;;13.40;72.10;;;;;;5087381;28;20024;-73
2021/10/01 03:32:57;;;;;;;2.35;0.90;;;13.40;72.00;;;;;;5068007;28;20425;-73
2021/10/01 03:35:23;;;;;;;4.93;1.23;;;13.40;72.20;;;;;;5066184;28;20024;-73
2021/10/01 03:37:48;;;;;;;3.33;1.38;;;13.40;72.30;;;;;;5061767;28;20090;-73
2021/10/01 03:40:14;;;;;;;3.47;1.17;;;13.40;72.40;;;;;;5067418;28;20024;-73
2021/10/01 03:42:41;;;;;;;6.93;1.40;;;13.40;72.50;;;;;;5079554;28;20032;-73
2021/10/01 03:45:09;;;;;;;3.50;1.27;;;13.40;72.30;;;;;;5065614;28;20035;-73
2021/10/01 03:47:35;;;;;;;3.28;1.10;;;13.40;72.70;;;;;;5065506;28;20098;-73
2021/10/01 03:50:01;;;;;;;6.57;1.40;;;13.40;72.60;;;;;;5061698;28;20035;-71
2021/10/01 03:52:27;;;;;;;6.03;1.20;;;13.40;72.60;;;;;;5076825;28;20039;-71
2021/10/01 03:54:53;;;;;;;2.45;1.05;;;13.40;72.90;;;;;;5081128;28;20024;-71
2021/10/01 03:57:22;;;;;;;4.57;1.30;;;13.40;73.10;;;;;;5087524;28;20032;-70
2021/10/01 03:59:48;;;;;;;3.08;1.20;;;13.40;73.20;;;;;;5063756;28;20040;-71
2021/10/01 04:02:13;;;;;;;3.53;1.33;;;13.40;73.00;;;;;;5062558;28;20028;-71
2021/10/01 04:04:39;;;;;;;3.75;1.15;;;13.40;73.00;;;;;;5071410;28;20028;-71
2021/10/01 04:07:05;;;;;;;4.60;1.10;;;13.40;72.90;;;;;;5078928;28;20037;-73
2021/10/01 04:09:31;;;;;;;6.97;1.67;;;13.40;72.80;;;;;;5058310;28;20016;-73
2021/10/01 04:11:57;;;;;;;4.70;1.58;;;13.40;72.50;;;;;;5075827;28;20028;-73
2021/10/01 04:14:24;;;;;;;4.47;1.15;;;13.30;72.50;;;;;;5071113;28;20476;-73
2021/10/01 04:16:51;;;;;;;6.93;1.38;;;13.30;72.80;;;;;;5059237;28;20407;-73
2021/10/01 04:19:17;;;;;;;3.28;1.10;;;13.30;72.70;;;;;;5087673;28;20115;-73
2021/10/01 04:21:44;;;;;;;5.95;1.33;;;13.30;72.70;;;;;;5084778;28;20111;-73
2021/10/01 04:24:11;;;;;;;2.97;1.08;;;13.20;72.90;;;;;;5052818;28;20046;-73
2021/10/01 04:26:37;;;;;;;5.30;1.20;;;13.30;72.90;;;;;;5075021;28;20062;-73
2021/10/01 04:29:03;;;;;;;6.20;1.35;;;13.20;72.50;;;;;;5085838;28;20445;-73
2021/10/01 04:31:29;;;;;;;7.30;1.65;;;13.20;72.20;;;;;;5065640;28;20072;-73
2021/10/01 04:33:54;;;;;;;4.68;1.30;;;13.20;72.30;;;;;;5086446;28;20187;-71
2021/10/01 04:36:22;;;;;;;8.20;1.60;;;13.20;72.40;;;;;;5057273;28;20028;-71
2021/10/01 04:38:48;;;;;;;4.60;1.30;;;13.20;72.60;;;;;;5081254;28;20020;-71
2021/10/01 04:41:14;;;;;;;4.28;1.27;;;13.20;72.50;;;;;;5074839;28;20024;-71
2021/10/01 04:43:40;;;;;;;3.70;1.40;;;13.10;72.30;;;;;;5087709;28;20089;-71
2021/10/01 04:46:07;;;;;;;3.35;1.30;;;13.10;72.20;;;;;;5085799;28;20028;-71
2021/10/01 04:48:33;;;;;;;3.70;0.90;;;13.20;72.30;;;;;;5083068;28;20553;-71
2021/10/01 04:50:59;;;;;;;6.53;1.20;;;13.10;72.50;;;;;;5083920;28;20055;-72
2021/10/01 04:53:24;;;;;;;4.13;1.35;;;13.10;72.70;;;;;;5088901;28;20107;-71
2021/10/01 04:55:50;;;;;;;4.22;1.23;;;13.10;72.60;;;;;;5057749;28;20040;-70
2021/10/01 04:58:16;;;;;;;4.93;1.55;;;13.10;72.50;;;;;;5077286;28;20021;-72
2021/10/01 05:00:41;;;;;;;4.68;1.20;;;13.10;72.90;;;;;;5063778;28;20036;-71
2021/10/01 05:03:07;;;;;;;2.00;1.08;;;13.10;72.40;;;;;;5053942;28;20048;-71
2021/10/01 05:05:33;;;;;;;3.75;1.23;;;13.00;72.30;;;;;;5076319;28;20024;-71
2021/10/01 05:07:58;;;;;;;4.72;1.08;;;13.00;72.70;;;;;;5088211;28;20032;-73
2021/10/01 05:10:24;;;;;;;3.28;1.10;;;13.00;72.40;;;;;;5063354;28;20059;-73
2021/10/01 05:12:50;;;;;;;4.03;1.33;;;13.00;72.50;;;;;;5088288;28;20032;-73
2021/10/01 05:15:18;;;;;;;3.92;1.00;;;13.00;72.40;;;;;;5062827;28;20066;-73
2021/10/01 05:17:44;;;;;;;5.95;1.30;;;13.00;72.60;;;;;;5061303;28;20429;-73
2021/10/01 05:20:12;;;;;;;5.35;1.30;;;13.00;72.40;;;;;;5083230;28;20077;-73
2021/10/01 05:22:38;;;;;;;4.75;1.08;;;12.90;72.40;;;;;;5069544;28;20059;-73
2021/10/01 05:25:05;;;;;;;4.13;1.20;;;13.00;72.70;;;;;;5076785;28;20024;-73
2021/10/01 05:27:32;;;;;;;3.80;1.13;;;13.00;72.60;;;;;;5088290;28;20043;-73
2021/10/01 05:29:58;;;;;;;3.53;1.20;;;13.00;72.40;;;;;;5080910;28;20474;-73
2021/10/01 05:32:24;;;;;;;5.32;1.45;;;12.90;72.00;;;;;;5081448;28;20021;-73
2021/10/01 05:34:50;;;;;;;6.22;2.28;;;12.90;72.30;;;;;;5083406;28;20039;-73
2021/10/01 05:37:17;;;;;;;7.32;1.30;;;13.00;72.40;;;;;;5079125;28;20490;-71
2021/10/01 05:39:42;;;;;;;4.35;1.60;;;12.90;72.70;;;;;;5086165;28;20355;-71
2021/10/01 05:42:08;;;;;;;6.85;1.48;;;13.00;72.10;;;;;;5067699;28;20028;-71
2021/10/01 05:44:33;;;;;;;3.55;1.00;;;12.90;72.20;;;;;;5065487;28;20516;-72
2021/10/01 05:47:02;;;;;;;3.83;1.15;;;13.00;72.30;;;;;;5080499;28;20108;-71
2021/10/01 05:49:36;;;;;;;3.20;1.20;;;12.90;72.00;;;;;;5087794;28;20020;-71
2021/10/01 05:52:15;;;;;;;5.03;1.10;;;13.00;72.00;;;;;;5074528;28;20107;-71
2021/10/01 05:54:41;;;;;;;4.20;1.40;;;13.00;71.60;;;;;;5062752;28;20032;-71
2021/10/01 05:57:11;;;;;;;5.10;1.20;;;13.00;71.60;;;;;;5064757;28;20046;-71
2021/10/01 05:59:43;;;;;;;3.80;1.20;;;12.90;71.60;;;;;;5082691;28;20031;-71
2021/10/01 06:02:15;;;;;;;6.63;1.30;;;12.90;71.90;;;;;;5081022;28;20099;-71
2021/10/01 06:04:41;;;;;;;2.72;1.23;;;13.00;71.90;;;;;;5086472;28;20562;-71
2021/10/01 06:07:07;;;;;;;3.45;1.10;;;13.00;71.70;;;;;;5041560;28;20074;-73
2021/10/01 06:09:33;;;;;;;2.95;1.23;;;13.00;71.50;;;;;;5087170;28;20012;-73
2021/10/01 06:11:59;;;;;;;5.63;1.30;;;13.00;71.60;;;;;;5078039;28;20108;-73
2021/10/01 06:14:25;;;;;;;4.03;1.40;;;13.00;71.40;;;;;;5065418;28;20116;-73
2021/10/01 06:16:53;;;;;;;4.88;1.20;;;13.00;71.60;;;;;;5067251;28;20058;-73
2021/10/01 06:19:21;;;;;;;3.45;1.00;;;13.10;71.60;;;;;;5080076;28;20070;-73
2021/10/01 06:21:48;;;;;;;5.70;1.33;;;13.10;71.60;;;;;;5089940;28;20108;-73
2021/10/01 06:24:14;;;;;;;3.60;1.10;;;13.10;71.80;;;;;;5066611;28;20036;-72
2021/10/01 06:26:40;;;;;;;2.97;1.20;;;13.10;71.70;;;;;;5083383;28;20550;-73
2021/10/01 06:29:06;;;;;;;3.67;1.02;;;13.10;71.00;;;;;;5071051;28;20085;-71
2021/10/01 06:31:31;;;;;;;5.78;1.33;;;13.10;71.50;;;;;;5089654;28;20424;-71
2021/10/01 06:33:57;;;;;;;4.35;1.33;;;13.10;71.30;;;;;;5082993;28;20032;-72
2021/10/01 06:36:23;;;;;;;5.10;1.20;;;13.20;71.30;;;;;;5081646;28;20525;-71
2021/10/01 06:38:52;;;;;;;4.35;1.10;;;13.20;71.60;;;;;;5089592;28;20032;-71
2021/10/01 06:41:19;;;;;;;3.17;1.20;;;13.20;71.60;;;;;;5066725;28;20067;-71
2021/10/01 06:43:45;;;;;;;2.47;0.93;;;13.20;71.50;;;;;;5072821;28;20539;-71
2021/10/01 06:46:29;;;;;;;4.57;1.40;;;13.20;71.70;;;;;;5088064;28;20070;-71
2021/10/01 08:19:22;;;;;;;3.15;1.20;;;14.10;69.50;;;;;;5067638;28;20039;-71
2021/10/01 08:21:53;;;;;;;4.13;1.20;;;14.10;69.80;;;;;;5068876;28;20031;-71
2021/10/01 08:24:19;;;;;;;2.45;1.02;;;14.20;70.00;;;;;;5089085;28;20145;-72
2021/10/01 08:26:46;;;;;;;3.92;1.35;;;14.20;69.60;;;;;;5056905;28;20039;-71
2021/10/01 08:29:13;;;;;;;3.17;1.15;;;14.20;70.10;;;;;;5065937;28;20170;-72
2021/10/01 08:31:39;;;;;;;5.35;1.35;;;14.30;69.70;;;;;;5086748;28;20024;-72
2021/10/01 08:34:05;;;;;;;5.05;1.23;;;14.30;69.20;;;;;;5061801;28;20021;-73
2021/10/01 08:36:31;;;;;;;5.78;1.20;;;14.30;69.30;;;;;;5085905;28;20114;-72
2021/10/01 08:38:57;;;;;;;5.43;1.30;;;14.40;69.10;;;;;;5061526;28;20036;-73
2021/10/01 08:41:23;;;;;;;5.72;1.52;;;14.40;69.90;;;;;;5063799;28;20031;-73
2021/10/01 08:43:49;;;;;;;9.50;2.20;;;14.40;70.20;;;;;;5088922;28;20020;-73
2021/10/01 08:46:16;;;;;;;3.22;1.38;;;14.50;70.00;;;;;;5080994;28;20016;-73
2021/10/01 08:48:43;;;;;;;4.35;1.20;;;14.50;71.20;;;;;;5063315;28;20070;-73
2021/10/01 08:51:10;;;;;;;3.17;1.48;;;14.40;71.50;;;;;;5061370;28;20480;-71
2021/10/01 08:53:36;;;;;;;4.38;1.20;;;14.40;71.70;;;;;;5070494;28;20103;-71
2021/10/01 08:56:03;;;;;;;3.05;1.48;;;14.40;72.80;;;;;;5088096;28;20196;-71
2021/10/01 08:58:29;;;;;;;5.20;1.73;;;14.30;73.60;;;;;;5088961;28;20031;-72
2021/10/01 09:01:01;;;;;;;4.93;1.25;;;14.30;73.90;;;;;;5068143;28;20471;-71
2021/10/01 09:03:27;;;;;;;6.07;1.55;;;14.30;74.20;;;;;;5087763;28;20040;-72
2021/10/01 09:05:53;;;;;;;6.03;1.70;;;14.30;74.80;;;;;;5060365;28;20024;-71
2021/10/01 09:08:24;;;;;;;4.75;1.25;;;14.30;74.40;;;;;;5078117;28;20021;-71
2021/10/01 09:11:05;;;;;;;6.78;1.85;;;14.30;74.90;;;;;;5070042;28;20012;-71
2021/10/01 09:13:36;;;;;;;5.82;1.58;;;14.40;75.30;;;;;;5087896;28;20028;-71
2021/10/01 09:16:07;;;;;;;6.25;1.60;;;14.40;74.80;;;;;;5086596;28;20376;-73
2021/10/01 09:18:35;;;;;;;3.80;1.50;;;14.50;75.30;;;;;;5084227;28;20019;-73
2021/10/01 09:21:08;;;;;;;8.20;2.20;;;14.50;75.00;;;;;;5087706;28;20024;-72
2021/10/01 09:23:42;;;;;;;6.93;2.20;;;14.60;74.30;;;;;;5084574;28;20024;-71
2021/10/01 09:26:11;;;;;;;5.90;2.40;;;14.60;73.40;;;;;;5083407;28;20037;-71
2021/10/01 09:29:07;;;;;;;5.07;2.03;;;14.60;73.30;;;;;;5084959;28;20012;-71
2021/10/01 09:31:34;;;;;;;5.13;2.17;;;14.60;73.00;;;;;;5080279;28;20062;-73
2021/10/01 09:34:01;;;;;;;3.70;1.77;;;14.60;73.30;;;;;;5068684;28;20417;-73
2021/10/01 09:36:26;;;;;;;7.97;2.53;;;14.60;74.50;;;;;;5086072;28;20055;-73
2021/10/01 09:38:54;;;;;;;5.28;1.80;;;14.60;74.10;;;;;;5088265;28;20511;-73
2021/10/01 09:41:28;;;;;;;5.55;1.73;;;14.60;75.60;;;;;;5088003;28;20025;-73
2021/10/01 09:44:13;;;;;;;4.65;1.90;;;14.60;76.10;;;;;;5088316;28;20032;-73
2021/10/01 09:46:49;;;;;;;4.78;1.63;;;14.60;77.20;;;;;;5085155;28;20099;-73
2021/10/01 09:49:16;;;;;;;7.68;2.10;;;14.60;77.10;;;;;;5076123;28;20399;-72
2021/10/01 09:51:54;;;;;;;4.47;1.67;;;14.60;77.30;;;;;;5089652;28;20391;-73
2021/10/01 09:54:21;;;;;;;4.47;1.67;;;14.60;77.40;;;;;;5065694;28;20434;-72
2021/10/01 09:56:48;;;;;;;6.80;2.17;;;14.60;77.40;;;;;;5092159;28;20028;-73
2021/10/01 09:59:19;;;;;;;6.95;2.17;;;14.60;77.50;;;;;;5072066;28;20089;-71
2021/10/01 10:01:59;;;;;;;6.47;2.03;;;14.70;78.20;;;;;;5070141;28;20119;-73
2021/10/01 10:04:27;;;;;;;4.60;1.80;;;14.70;77.60;;;;;;5056580;28;20020;-71
2021/10/01 10:06:54;;;;;;;3.47;1.65;;;14.70;77.60;;;;;;5085614;28;20550;-71
2021/10/01 10:09:31;;;;;;;7.65;1.88;;;14.80;78.10;;;;;;5073083;28;20028;-70
2021/10/01 10:11:57;;;;;;;5.05;1.65;;;14.80;78.20;;;;;;5090305;28;20028;-71
2021/10/01 10:14:23;;;;;;;4.07;1.67;;;14.80;78.10;;;;;;5090646;28;20466;-71
2021/10/01 10:16:48;;;;;;;2.78;1.50;;;14.90;78.00;;;;;;5060601;28;20036;-71
2021/10/01 10:19:20;;;;;;;4.60;1.88;;;15.00;78.30;;;;;;5067914;28;20135;-72
2021/10/01 10:21:47;;;;;;;8.63;2.10;;;15.10;77.70;;;;;;5070524;28;20032;-70
2021/10/01 10:24:13;;;;;;;4.47;1.85;;;15.20;77.50;;;;;;5073369;28;20016;-70
2021/10/01 10:26:39;;;;;;;3.05;1.50;;;15.30;77.60;;;;;;5057755;28;20379;-71
2021/10/01 10:29:08;;;;;;;5.63;1.83;;;15.30;77.00;;;;;;5070940;28;20047;-72
2021/10/01 10:31:36;;;;;;;5.75;1.50;;;15.40;76.90;;;;;;5087998;28;20020;-71
2021/10/01 10:34:02;;;;;;;4.80;1.63;;;15.50;76.70;;;;;;5091870;28;20024;-71
2021/10/01 10:36:31;;;;;;;7.30;1.63;;;15.70;76.90;;;;;;5090018;28;20466;-71
2021/10/01 10:39:19;;;;;;;7.57;1.75;;;16.00;76.10;;;;;;5082819;28;20119;-71
2021/10/01 10:42:04;;;;;;;3.83;1.40;;;16.20;74.40;;;;;;5055032;28;20054;-72
2021/10/01 10:44:53;;;;;;;8.02;1.60;;;16.40;74.80;;;;;;5080756;28;20027;-71
2021/10/01 10:47:53;;;;;;;7.93;1.40;;;16.60;73.20;;;;;;5090941;28;20067;-71
2021/10/01 10:50:22;;;;;;;4.22;1.48;;;16.50;72.10;;;;;;5058186;28;20419;-71
2021/10/01 10:53:22;;;;;;;5.05;1.63;;;16.50;71.90;;;;;;5082707;28;20016;-70
2021/10/01 10:55:55;;;;;;;6.78;1.60;;;16.60;69.90;;;;;;5078012;28;20517;-71
2021/10/01 10:58:24;;;;;;;4.32;1.50;;;16.60;68.00;;;;;;5078331;28;20028;-70
2021/10/01 11:00:54;;;;;;;5.28;1.60;;;16.70;68.80;;;;;;5088570;28;20400;-70
2021/10/01 11:03:29;;;;;;;7.32;1.60;;;16.70;69.90;;;;;;5090889;28;20032;-71
2021/10/01 11:06:17;;;;;;;6.88;1.75;;;16.70;69.70;;;;;;5071323;28;20355;-71
2021/10/01 11:08:51;;;;;;;5.15;1.73;;;16.70;69.90;;;;;;5090785;28;20154;-70
2021/10/01 11:11:29;;;;;;;4.47;1.55;;;16.70;68.50;;;;;;5074400;28;20024;-71
2021/10/01 11:14:22;;;;;;;3.83;1.38;;;16.70;68.20;;;;;;5068542;28;20055;-70
2021/10/01 11:16:53;;;;;;;5.55;1.35;;;16.70;67.60;;;;;;5103304;28;20028;-71
2021/10/01 11:19:38;;;;;;;7.45;1.40;;;16.70;68.70;;;;;;5088990;28;20043;-70
2021/10/01 11:22:32;;;;;;;3.50;1.20;;;16.70;68.10;;;;;;5070196;28;20123;-71
2021/10/01 11:25:17;;;;;;;7.60;1.40;;;16.70;68.60;;;;;;5085810;28;20089;-70
2021/10/01 11:28:02;;;;;;;5.00;1.40;;;16.70;68.30;;;;;;5090865;28;20028;-71
2021/10/01 11:30:29;;;;;;;6.68;1.75;;;16.70;68.80;;;;;;5086026;28;20024;-70
2021/10/01 11:33:05;;;;;;;4.45;1.63;;;16.60;68.00;;;;;;5097382;28;20039;-71
2021/10/01 11:35:30;;;;;;;5.55;1.40;;;16.60;68.40;;;;;;5097818;28;20032;-71
2021/10/01 11:37:58;;;;;;;2.97;1.40;;;16.60;68.70;;;;;;5061984;28;20041;-71
2021/10/01 11:40:28;;;;;;;5.53;1.38;;;16.70;69.20;;;;;;5043763;28;20032;-73
2021/10/01 11:42:56;;;;;;;7.43;1.70;;;16.80;69.30;;;;;;5062628;28;20025;-73
2021/10/01 11:45:28;;;;;;;3.72;1.52;;;17.00;69.80;;;;;;5060131;28;20047;-73
2021/10/01 11:47:56;;;;;;;9.50;1.60;;;17.00;70.40;;;;;;5072033;28;20072;-73
2021/10/01 11:50:38;;;;;;;3.13;1.23;;;17.00;68.20;;;;;;5050344;28;20064;-73
2021/10/01 11:53:18;;;;;;;3.90;1.50;;;16.90;68.40;;;;;;5049274;28;20025;-72
2021/10/01 11:55:53;;;;;;;3.35;1.73;;;16.80;68.90;;;;;;5048922;28;20356;-72
2021/10/01 11:58:21;;;;;;;8.10;1.40;;;16.70;70.90;;;;;;5038441;28;20523;-72
2021/10/01 12:00:47;;;;;;;5.68;1.58;;;16.70;71.10;;;;;;5048252;28;20017;-72
2021/10/01 12:03:18;;;;;;;6.00;1.48;;;16.60;70.50;;;;;;5046919;28;20475;-72
2021/10/01 12:05:49;;;;;;;5.85;1.38;;;16.50;71.60;;;;;;5048869;28;20052;-73
2021/10/01 12:08:19;;;;;;;4.80;1.58;;;16.50;73.20;;;;;;5048171;28;20111;-73
2021/10/01 12:10:47;;;;;;;3.78;1.25;;;16.40;73.00;;;;;;5048622;28;20029;-73
2021/10/01 12:13:25;;;;;;;3.80;1.50;;;16.40;72.50;;;;;;5046525;28;20123;-73
2021/10/01 12:15:50;;;;;;;6.25;1.42;;;16.40;73.20;;;;;;5042190;28;20053;-73
2021/10/01 12:18:38;;;;;;;4.68;1.30;;;16.30;71.20;;;;;;5049605;28;20059;-73
2021/10/01 12:21:09;;;;;;;4.50;1.45;;;16.30;71.00;;;;;;5054511;28;20045;-73
2021/10/01 12:23:46;;;;;;;5.60;1.65;;;16.30;70.50;;;;;;5048078;28;20096;-73
2021/10/01 12:26:19;;;;;;;4.97;1.73;;;16.40;71.30;;;;;;5048629;28;20460;-73
2021/10/01 12:29:06;;;;;;;5.18;1.75;;;16.30;71.30;;;;;;5044112;28;20370;-73
2021/10/01 12:31:51;;;;;;;5.63;1.30;;;16.40;71.20;;;;;;5046755;28;20471;-73
2021/10/01 12:34:45;;;;;;;8.10;1.65;;;16.40;70.70;;;;;;5043567;28;20074;-72
2021/10/01 12:37:14;;;;;;;8.23;1.67;;;16.50;70.60;;;;;;5059432;28;20448;-70
2021/10/01 12:39:42;;;;;;;4.32;1.63;;;16.50;70.40;;;;;;5088828;28;20035;-70
2021/10/01 12:42:13;;;;;;;7.07;1.65;;;16.50;69.90;;;;;;5086101;28;20411;-71
2021/10/01 12:44:42;;;;;;;7.47;1.27;;;16.50;69.10;;;;;;5084773;28;20387;-70
2021/10/01 12:47:16;;;;;;;3.63;1.20;;;16.50;69.90;;;;;;5085610;28;20088;-70
2021/10/01 12:49:55;;;;;;;3.42;1.20;;;16.60;69.60;;;;;;5078678;28;20386;-70
2021/10/01 12:52:23;;;;;;;5.75;1.60;;;16.60;69.70;;;;;;5087898;28;20488;-70
2021/10/01 12:54:58;;;;;;;2.50;1.35;;;16.60;69.30;;;;;;5077049;28;20103;-72
2021/10/01 12:57:35;;;;;;;2.85;1.23;;;16.70;69.70;;;;;;5076564;28;20021;-70
2021/10/01 13:00:03;;;;;;;3.15;1.25;;;16.70;69.70;;;;;;5064033;28;20016;-72
2021/10/01 13:02:46;;;;;;;2.90;1.13;;;16.70;69.70;;;;;;5086627;28;20029;-70
2021/10/01 13:05:14;;;;;;;;;;;16.70;69.50;;;;;;5088812;28;20093;-71
2021/10/01 13:07:43;;;;;;;5.25;1.30;;;16.80;69.70;;;;;;5081350;28;19915;-71
2021/10/01 13:10:15;;;;;;;5.40;1.50;;;16.80;67.20;;;;;;5087159;28;20047;-70
2021/10/01 13:12:51;;;;;;;8.35;1.77;;;16.90;67.10;;;;;;5077248;28;20032;-71
2021/10/01 13:15:21;;;;;;;3.20;1.40;;;16.90;67.30;;;;;;5088528;28;20149;-70
2021/10/01 13:18:13;;;;;;;2.35;1.08;;;16.90;66.60;;;;;;5070220;28;20036;-70
2021/10/01 13:21:03;;;;;;;2.65;1.17;;;17.00;66.20;;;;;;5087309;28;20024;-70
2021/10/01 13:23:32;;;;;;;5.63;1.33;;;17.00;67.60;;;;;;5079664;28;20085;-71
2021/10/01 13:26:00;;;;;;;4.07;1.40;;;17.00;65.90;;;;;;5070993;28;20034;-70
2021/10/01 13:28:29;;;;;;;4.45;1.20;;;17.00;66.40;;;;;;5084341;28;20101;-70
2021/10/01 13:30:55;;;;;;;4.50;1.20;;;17.00;66.20;;;;;;5090459;28;20028;-70
2021/10/01 13:33:23;;;;;;;5.25;1.23;;;17.00;66.60;;;;;;5085571;28;20042;-70
2021/10/01 13:35:51;;;;;;;4.45;1.60;;;17.00;67.20;;;;;;5088666;28;20509;-70
2021/10/01 13:38:45;;;;;;;4.22;1.30;;;17.00;67.40;;;;;;5079833;28;20043;-71
2021/10/01 13:41:13;;;;;;;4.55;1.48;;;17.00;66.50;;;;;;5085422;28;20057;-73
2021/10/01 13:43:40;;;;;;;4.50;1.30;;;17.00;65.80;;;;;;5091218;28;20380;-73
2021/10/01 13:46:08;;;;;;;4.50;1.27;;;16.90;65.40;;;;;;5083487;28;20461;-73
2021/10/01 13:48:34;;;;;;;4.90;1.70;;;16.90;66.20;;;;;;5065067;28;20437;-73
2021/10/01 13:51:00;;;;;;;5.35;1.75;;;16.90;66.90;;;;;;5083287;28;20033;-72
2021/10/01 13:53:26;;;;;;;5.35;1.60;;;16.90;66.40;;;;;;5064780;28;20038;-73
2021/10/01 13:55:53;;;;;;;3.95;1.20;;;16.90;66.00;;;;;;5081022;28;20107;-73
2021/10/01 13:58:19;;;;;;;3.83;1.40;;;17.00;65.70;;;;;;5092223;28;20104;-73
2021/10/01 14:00:45;;;;;;;2.58;1.20;;;17.00;66.00;;;;;;5091692;28;20421;-73
2021/10/01 14:03:12;;;;;;;4.82;1.30;;;17.10;66.00;;;;;;5088995;28;20020;-72
2021/10/01 14:05:39;;;;;;;3.08;1.05;;;17.10;66.10;;;;;;5089547;28;20044;-73
2021/10/01 14:08:05;;;;;;;5.55;1.40;;;17.10;65.20;;;;;;5089590;28;20069;-73
2021/10/01 14:10:32;;;;;;;5.15;1.10;;;17.20;64.50;;;;;;5087480;28;20035;-73
2021/10/01 14:12:59;;;;;;;2.83;1.23;;;17.20;64.50;;;;;;5073838;28;20028;-73
2021/10/01 14:15:26;;;;;;;5.30;1.45;;;17.20;65.10;;;;;;5059744;28;20023;-73
2021/10/01 14:17:53;;;;;;;5.22;1.52;;;17.20;64.40;;;;;;5073231;28;20024;-73
2021/10/01 14:20:21;;;;;;;4.72;1.42;;;17.20;64.60;;;;;;5072242;28;20020;-71
2021/10/01 14:22:48;;;;;;;3.33;1.35;;;17.20;64.70;;;;;;5090956;28;20502;-73
2021/10/01 14:25:15;;;;;;;6.38;1.50;;;17.20;64.30;;;;;;5091395;28;20025;-73
2021/10/01 14:27:41;;;;;;;2.63;1.35;;;17.20;65.10;;;;;;5073588;28;20048;-73
2021/10/01 14:30:10;;;;;;;4.68;1.42;;;17.20;65.40;;;;;;5072473;28;20024;-73
2021/10/01 14:32:36;;;;;;;4.10;1.35;;;17.20;65.00;;;;;;5073064;28;20020;-73
2021/10/01 14:35:02;;;;;;;2.88;1.42;;;17.20;64.60;;;;;;5072169;28;20032;-73